Clones, Ireland

2:52 AM GMT on March 07, 2015 (GMT +0000)
Corlea | Change Station
CLOSE
Current Station
Personal Weather Station
Location: Shantonagh, MONAGHAN
Elevation: 367 ft
Nearby Weather Stations

Elev 367 ft 54.05 °N, 6.91 °W | Updated 29 seconds ago

Overcast
Overcast
51.3 °F
Feels Like 51.3 °F
N
1.8
Wind Variable Wind from SSW
Gusts 2.5 mph

Today
High -- | Low -- °F
--% Chance of Precip.
Yesterday
High -- | Low -- °F
Precip. -- in
7:04 AM 6:16 PM
Full, 98% visible
Pressure 29.83 in
Visibility 6.2 miles
Clouds Overcast 2000 ft
Dew Point 43 °F
Humidity 74%
Rainfall in
Snow Depth Not available.
UV 0.0 out of 12
Pollen Not available.
Air Quality Not available.
Flu Activity Not available.
METAR EGAA 070220Z 21014KT 9999 OVC020 10/07 Q1010

More Conditions Fewer Conditions

Pressure 29.83 in
Visibility 6.2 miles
Clouds Overcast 2000 ft
Dew Point 43 °F
Humidity 74%
Rainfall in
Snow Depth Not available.
UV 0.0 out of 12
Pollen Not available.
Air Quality Not available.
Flu Activity Not available.
METAR EGAA 070220Z 21014KT 9999 OVC020 10/07 Q1010

More Conditions Fewer Conditions

10-Day Weather Forecast

Almanac

Astronomy

Mar. 07, 2015 Rise Set
Actual Time
Civil Twilight
Nautical Twilight
Astronomical Twilight
Moon
Length of Visible Light
Length of Day
Tomorrow will be .
, % of the Moon is Illuminated

Today's Extremes

Country Highs Country Lows

Community

WunderPhotos

Upload Photos

1,803,501 photos uploaded!

WunderBlogs® & News

Nearby

Air Quality

  Air Quality AQ Index Pollutant
Not available.

Snow Depth

Station Depth Elevation

Earthquake Activity

City Distance Mag. Time & Date
Minimum magnitude displayed is 2.5.

Coastal Water Temperatures

Place Temperature

Nearby Weather Stations